sensor_id;sensor_type;location;lat;lon;timestamp;pressure;altitude;pressure_sealevel;temperature;humidity
41830;BME280;38614;43.472;23.936;2023-03-12T00:00:55;99361.25;;;4.20;100.00
41830;BME280;38614;43.472;23.936;2023-03-12T00:03:43;99360.31;;;4.16;100.00
41830;BME280;38614;43.472;23.936;2023-03-12T00:06:31;99368.41;;;4.13;100.00
41830;BME280;38614;43.472;23.936;2023-03-12T00:09:19;99372.47;;;4.07;100.00
41830;BME280;38614;43.472;23.936;2023-03-12T00:12:14;99365.00;;;3.95;100.00
41830;BME280;38614;43.472;23.936;2023-03-12T00:15:04;99386.66;;;4.00;100.00
41830;BME280;38614;43.472;23.936;2023-03-12T00:17:54;99372.75;;;3.93;100.00
41830;BME280;38614;43.472;23.936;2023-03-12T00:20:42;99378.69;;;3.95;100.00
41830;BME280;38614;43.472;23.936;2023-03-12T00:23:32;99391.22;;;3.96;100.00
41830;BME280;38614;43.472;23.936;2023-03-12T00:26:21;99385.47;;;3.89;100.00
41830;BME280;38614;43.472;23.936;2023-03-12T00:29:08;99398.66;;;3.87;100.00
41830;BME280;38614;43.472;23.936;2023-03-12T00:31:56;99395.19;;;3.78;100.00
41830;BME280;38614;43.472;23.936;2023-03-12T00:34:52;99404.75;;;3.92;100.00
41830;BME280;38614;43.472;23.936;2023-03-12T00:37:40;99402.34;;;3.91;100.00
41830;BME280;38614;43.472;23.936;2023-03-12T00:40:28;99388.06;;;3.64;100.00
41830;BME280;38614;43.472;23.936;2023-03-12T00:43:16;99404.25;;;3.69;100.00
41830;BME280;38614;43.472;23.936;2023-03-12T00:46:03;99405.91;;;3.62;100.00
41830;BME280;38614;43.472;23.936;2023-03-12T00:48:51;99399.63;;;3.61;100.00
41830;BME280;38614;43.472;23.936;2023-03-12T00:51:39;99398.59;;;3.54;100.00
41830;BME280;38614;43.472;23.936;2023-03-12T00:54:27;99413.28;;;3.61;100.00
41830;BME280;38614;43.472;23.936;2023-03-12T00:57:14;99404.69;;;3.51;100.00
41830;BME280;38614;43.472;23.936;2023-03-12T01:00:03;99392.88;;;3.38;100.00
41830;BME280;38614;43.472;23.936;2023-03-12T01:02:56;99407.75;;;3.49;100.00
41830;BME280;38614;43.472;23.936;2023-03-12T01:05:44;99404.59;;;3.38;100.00
41830;BME280;38614;43.472;23.936;2023-03-12T01:08:32;99404.63;;;3.30;100.00
41830;BME280;38614;43.472;23.936;2023-03-12T01:11:20;99417.63;;;3.33;100.00
41830;BME280;38614;43.472;23.936;2023-03-12T01:14:08;99372.19;;;2.99;100.00
41830;BME280;38614;43.472;23.936;2023-03-12T01:16:56;99413.38;;;3.14;100.00
41830;BME280;38614;43.472;23.936;2023-03-12T01:19:44;99422.06;;;3.17;100.00
41830;BME280;38614;43.472;23.936;2023-03-12T01:22:31;99422.53;;;3.19;100.00
41830;BME280;38614;43.472;23.936;2023-03-12T01:25:19;99422.53;;;3.19;100.00
41830;BME280;38614;43.472;23.936;2023-03-12T01:28:07;99425.06;;;3.24;100.00
41830;BME280;38614;43.472;23.936;2023-03-12T01:30:55;99429.09;;;3.26;100.00
41830;BME280;38614;43.472;23.936;2023-03-12T01:33:43;99427.31;;;3.22;100.00
41830;BME280;38614;43.472;23.936;2023-03-12T01:36:31;99412.22;;;3.15;100.00
41830;BME280;38614;43.472;23.936;2023-03-12T01:39:19;99416.59;;;3.17;100.00
41830;BME280;38614;43.472;23.936;2023-03-12T01:42:07;99422.22;;;3.11;100.00
41830;BME280;38614;43.472;23.936;2023-03-12T01:45:00;99422.06;;;3.17;100.00
41830;BME280;38614;43.472;23.936;2023-03-12T01:47:50;99427.38;;;3.04;100.00
41830;BME280;38614;43.472;23.936;2023-03-12T01:50:38;99441.81;;;3.05;100.00
41830;BME280;38614;43.472;23.936;2023-03-12T01:53:27;99444.09;;;2.94;100.00
41830;BME280;38614;43.472;23.936;2023-03-12T01:56:17;99463.25;;;2.77;100.00
41830;BME280;38614;43.472;23.936;2023-03-12T01:59:15;99482.34;;;2.85;100.00
41830;BME280;38614;43.472;23.936;2023-03-12T02:02:05;99465.97;;;2.77;100.00
41830;BME280;38614;43.472;23.936;2023-03-12T02:05:08;99471.78;;;2.58;100.00
41830;BME280;38614;43.472;23.936;2023-03-12T02:07:58;99465.69;;;2.52;100.00
41830;BME280;38614;43.472;23.936;2023-03-12T02:10:46;99464.72;;;2.66;100.00
41830;BME280;38614;43.472;23.936;2023-03-12T02:13:34;99462.31;;;2.73;100.00
41830;BME280;38614;43.472;23.936;2023-03-12T02:16:24;99464.69;;;2.74;100.00
41830;BME280;38614;43.472;23.936;2023-03-12T02:23:05;99450.75;;;2.67;100.00
41830;BME280;38614;43.472;23.936;2023-03-12T02:25:56;99448.53;;;2.61;100.00
41830;BME280;38614;43.472;23.936;2023-03-12T02:28:44;99454.28;;;2.68;100.00
41830;BME280;38614;43.472;23.936;2023-03-12T02:31:37;99439.50;;;2.69;100.00
41830;BME280;38614;43.472;23.936;2023-03-12T02:34:27;99434.88;;;2.61;100.00
41830;BME280;38614;43.472;23.936;2023-03-12T02:37:15;99444.50;;;2.67;100.00
41830;BME280;38614;43.472;23.936;2023-03-12T02:40:14;99441.16;;;2.61;100.00
41830;BME280;38614;43.472;23.936;2023-03-12T02:43:06;99457.00;;;2.59;100.00
41830;BME280;38614;43.472;23.936;2023-03-12T02:45:54;99429.78;;;2.33;100.00
41830;BME280;38614;43.472;23.936;2023-03-12T02:48:42;99466.97;;;2.55;100.00
41830;BME280;38614;43.472;23.936;2023-03-12T02:51:30;99466.31;;;2.49;100.00
41830;BME280;38614;43.472;23.936;2023-03-12T02:54:19;99477.56;;;2.48;100.00
41830;BME280;38614;43.472;23.936;2023-03-12T02:57:08;99492.66;;;2.54;100.00
41830;BME280;38614;43.472;23.936;2023-03-12T02:59:56;99474.50;;;2.32;100.00
41830;BME280;38614;43.472;23.936;2023-03-12T03:02:44;99503.56;;;2.45;100.00
41830;BME280;38614;43.472;23.936;2023-03-12T03:05:33;99467.44;;;2.22;100.00
41830;BME280;38614;43.472;23.936;2023-03-12T03:08:23;99517.34;;;2.40;100.00
41830;BME280;38614;43.472;23.936;2023-03-12T03:11:11;99522.16;;;2.43;100.00
41830;BME280;38614;43.472;23.936;2023-03-12T03:13:59;99533.22;;;2.38;100.00
41830;BME280;38614;43.472;23.936;2023-03-12T03:16:49;99539.66;;;2.42;100.00
41830;BME280;38614;43.472;23.936;2023-03-12T03:19:39;99439.34;;;1.79;100.00
41830;BME280;38614;43.472;23.936;2023-03-12T03:22:27;99496.94;;;2.20;100.00
41830;BME280;38614;43.472;23.936;2023-03-12T03:25:14;99540.91;;;2.27;100.00
41830;BME280;38614;43.472;23.936;2023-03-12T03:28:03;99549.88;;;2.28;100.00
41830;BME280;38614;43.472;23.936;2023-03-12T03:30:55;99561.44;;;2.25;100.00
41830;BME280;38614;43.472;23.936;2023-03-12T03:33:55;99569.63;;;2.25;100.00
41830;BME280;38614;43.472;23.936;2023-03-12T03:36:42;99571.03;;;2.22;100.00
41830;BME280;38614;43.472;23.936;2023-03-12T03:39:33;99569.63;;;2.25;100.00
41830;BME280;38614;43.472;23.936;2023-03-12T03:42:21;99567.38;;;2.27;100.00
41830;BME280;38614;43.472;23.936;2023-03-12T03:45:09;99533.97;;;2.13;100.00
41830;BME280;38614;43.472;23.936;2023-03-12T03:48:00;99522.59;;;2.19;100.00
41830;BME280;38614;43.472;23.936;2023-03-12T03:50:48;99519.88;;;2.11;100.00
41830;BME280;38614;43.472;23.936;2023-03-12T03:53:35;99536.38;;;2.06;100.00
41830;BME280;38614;43.472;23.936;2023-03-12T03:56:25;99536.06;;;2.07;100.00
41830;BME280;38614;43.472;23.936;2023-03-12T03:59:13;99524.34;;;1.98;100.00
41830;BME280;38614;43.472;23.936;2023-03-12T04:02:02;99524.66;;;1.96;100.00
41830;BME280;38614;43.472;23.936;2023-03-12T04:04:56;99554.78;;;2.00;100.00
41830;BME280;38614;43.472;23.936;2023-03-12T04:07:47;99547.38;;;1.92;100.00
41830;BME280;38614;43.472;23.936;2023-03-12T04:10:38;99575.16;;;2.03;100.00
41830;BME280;38614;43.472;23.936;2023-03-12T04:13:26;99574.84;;;2.13;100.00
41830;BME280;38614;43.472;23.936;2023-03-12T04:16:15;99538.41;;;1.91;100.00
41830;BME280;38614;43.472;23.936;2023-03-12T04:19:03;99563.47;;;2.11;100.00
41830;BME280;38614;43.472;23.936;2023-03-12T04:21:51;99576.78;;;2.12;100.00
41830;BME280;38614;43.472;23.936;2023-03-12T04:24:39;99578.72;;;2.12;100.00
41830;BME280;38614;43.472;23.936;2023-03-12T04:27:27;99599.06;;;2.06;100.00
41830;BME280;38614;43.472;23.936;2023-03-12T04:30:18;99598.06;;;2.02;100.00
41830;BME280;38614;43.472;23.936;2023-03-12T04:33:06;99612.53;;;2.11;100.00
41830;BME280;38614;43.472;23.936;2023-03-12T04:35:55;99613.19;;;2.08;100.00
41830;BME280;38614;43.472;23.936;2023-03-12T04:38:43;99612.97;;;2.04;100.00
41830;BME280;38614;43.472;23.936;2023-03-12T04:41:35;99640.44;;;2.08;100.00
41830;BME280;38614;43.472;23.936;2023-03-12T04:44:28;99648.72;;;2.03;100.00
41830;BME280;38614;43.472;23.936;2023-03-12T04:47:15;99632.38;;;2.03;100.00
41830;BME280;38614;43.472;23.936;2023-03-12T04:50:05;99653.19;;;1.90;100.00
41830;BME280;38614;43.472;23.936;2023-03-12T04:52:53;99657.88;;;1.98;100.00
41830;BME280;38614;43.472;23.936;2023-03-12T04:55:41;99657.88;;;1.98;100.00
41830;BME280;38614;43.472;23.936;2023-03-12T04:58:29;99676.13;;;1.97;100.00
41830;BME280;38614;43.472;23.936;2023-03-12T05:01:26;99666.00;;;1.89;100.00
41830;BME280;38614;43.472;23.936;2023-03-12T05:04:15;99666.34;;;1.96;100.00
41830;BME280;38614;43.472;23.936;2023-03-12T05:07:04;99675.66;;;1.95;100.00
41830;BME280;38614;43.472;23.936;2023-03-12T05:09:52;99673.22;;;1.94;100.00
41830;BME280;38614;43.472;23.936;2023-03-12T05:12:39;99677.25;;;1.96;100.00
41830;BME280;38614;43.472;23.936;2023-03-12T05:15:27;99667.19;;;2.06;100.00
41830;BME280;38614;43.472;23.936;2023-03-12T05:18:16;99622.31;;;1.72;100.00
41830;BME280;38614;43.472;23.936;2023-03-12T05:21:10;99684.03;;;2.08;100.00
41830;BME280;38614;43.472;23.936;2023-03-12T05:23:59;99657.09;;;2.06;100.00
41830;BME280;38614;43.472;23.936;2023-03-12T05:26:48;99704.44;;;2.19;100.00
41830;BME280;38614;43.472;23.936;2023-03-12T05:29:39;99698.88;;;2.33;100.00
41830;BME280;38614;43.472;23.936;2023-03-12T05:32:27;99698.22;;;2.27;100.00
41830;BME280;38614;43.472;23.936;2023-03-12T05:35:15;99681.56;;;2.28;100.00
41830;BME280;38614;43.472;23.936;2023-03-12T05:38:05;99696.06;;;2.46;100.00
41830;BME280;38614;43.472;23.936;2023-03-12T05:40:54;99675.84;;;2.47;100.00
41830;BME280;38614;43.472;23.936;2023-03-12T05:43:42;99724.94;;;3.22;100.00
41830;BME280;38614;43.472;23.936;2023-03-12T05:46:30;99733.47;;;3.63;100.00
41830;BME280;38614;43.472;23.936;2023-03-12T05:49:20;99708.66;;;3.86;100.00
41830;BME280;38614;43.472;23.936;2023-03-12T05:52:08;99723.63;;;4.35;100.00
41830;BME280;38614;43.472;23.936;2023-03-12T05:54:56;99733.25;;;4.50;100.00
41830;BME280;38614;43.472;23.936;2023-03-12T05:57:43;99705.13;;;4.41;100.00
41830;BME280;38614;43.472;23.936;2023-03-12T06:00:33;99739.44;;;4.68;100.00
41830;BME280;38614;43.472;23.936;2023-03-12T06:03:26;99745.97;;;4.84;100.00
41830;BME280;38614;43.472;23.936;2023-03-12T06:06:17;99746.19;;;4.70;100.00
41830;BME280;38614;43.472;23.936;2023-03-12T06:09:05;99762.53;;;4.88;100.00
41830;BME280;38614;43.472;23.936;2023-03-12T06:11:53;99753.06;;;5.06;100.00
41830;BME280;38614;43.472;23.936;2023-03-12T06:14:41;99760.91;;;5.16;100.00
41830;BME280;38614;43.472;23.936;2023-03-12T06:17:30;99733.91;;;5.06;100.00
41830;BME280;38614;43.472;23.936;2023-03-12T06:20:18;99769.94;;;5.37;100.00
41830;BME280;38614;43.472;23.936;2023-03-12T06:23:06;99781.91;;;5.33;100.00
41830;BME280;38614;43.472;23.936;2023-03-12T06:25:54;99785.13;;;5.35;100.00
41830;BME280;38614;43.472;23.936;2023-03-12T06:28:42;99796.59;;;5.28;100.00
41830;BME280;38614;43.472;23.936;2023-03-12T06:31:31;99809.50;;;5.49;100.00
41830;BME280;38614;43.472;23.936;2023-03-12T06:34:19;99808.53;;;5.53;100.00
41830;BME280;38614;43.472;23.936;2023-03-12T06:37:06;99809.19;;;5.50;100.00
41830;BME280;38614;43.472;23.936;2023-03-12T06:39:54;99811.19;;;5.41;100.00
41830;BME280;38614;43.472;23.936;2023-03-12T06:42:42;99819.75;;;5.81;100.00
41830;BME280;38614;43.472;23.936;2023-03-12T06:45:32;99825.13;;;5.98;100.00
41830;BME280;38614;43.472;23.936;2023-03-12T06:48:20;99832.53;;;5.77;100.00
41830;BME280;38614;43.472;23.936;2023-03-12T06:51:09;99846.28;;;5.18;100.00
41830;BME280;38614;43.472;23.936;2023-03-12T06:53:58;99830.78;;;4.93;100.00
41830;BME280;38614;43.472;23.936;2023-03-12T06:56:48;99854.53;;;4.71;100.00
41830;BME280;38614;43.472;23.936;2023-03-12T06:59:36;99878.66;;;4.86;100.00
41830;BME280;38614;43.472;23.936;2023-03-12T07:02:24;99881.06;;;5.26;100.00
41830;BME280;38614;43.472;23.936;2023-03-12T07:05:15;99874.34;;;5.44;100.00
41830;BME280;38614;43.472;23.936;2023-03-12T07:08:03;99883.56;;;5.69;100.00
41830;BME280;38614;43.472;23.936;2023-03-12T07:10:50;99881.97;;;5.89;100.00
41830;BME280;38614;43.472;23.936;2023-03-12T07:13:38;99892.50;;;6.08;100.00
41830;BME280;38614;43.472;23.936;2023-03-12T07:16:26;99901.31;;;6.35;100.00
41830;BME280;38614;43.472;23.936;2023-03-12T07:19:14;99904.13;;;6.26;100.00
41830;BME280;38614;43.472;23.936;2023-03-12T07:22:02;99891.22;;;6.26;100.00
41830;BME280;38614;43.472;23.936;2023-03-12T07:24:50;99877.03;;;6.57;100.00
41830;BME280;38614;43.472;23.936;2023-03-12T07:27:37;99878.59;;;6.79;100.00
41830;BME280;38614;43.472;23.936;2023-03-12T07:30:28;99894.03;;;6.84;100.00
41830;BME280;38614;43.472;23.936;2023-03-12T07:33:20;99932.91;;;6.74;100.00
41830;BME280;38614;43.472;23.936;2023-03-12T07:36:08;99898.09;;;6.12;100.00
41830;BME280;38614;43.472;23.936;2023-03-12T07:38:59;99926.06;;;6.47;100.00
41830;BME280;38614;43.472;23.936;2023-03-12T07:41:46;99929.38;;;6.73;100.00
41830;BME280;38614;43.472;23.936;2023-03-12T07:44:34;99927.41;;;6.41;100.00
41830;BME280;38614;43.472;23.936;2023-03-12T07:47:23;99944.94;;;6.48;99.06
41830;BME280;38614;43.472;23.936;2023-03-12T07:50:11;99926.34;;;6.33;100.00
41830;BME280;38614;43.472;23.936;2023-03-12T07:53:00;99944.69;;;6.74;100.00
41830;BME280;38614;43.472;23.936;2023-03-12T07:55:48;99944.16;;;6.81;100.00
41830;BME280;38614;43.472;23.936;2023-03-12T07:58:36;99905.72;;;7.05;100.00
41830;BME280;38614;43.472;23.936;2023-03-12T08:01:25;99942.16;;;7.02;96.03
41830;BME280;38614;43.472;23.936;2023-03-12T08:04:18;99953.00;;;6.66;95.31
41830;BME280;38614;43.472;23.936;2023-03-12T08:07:06;99945.16;;;7.22;93.90
41830;BME280;38614;43.472;23.936;2023-03-12T08:09:55;99971.22;;;7.73;93.72
41830;BME280;38614;43.472;23.936;2023-03-12T08:12:43;99952.75;;;7.49;89.78
41830;BME280;38614;43.472;23.936;2023-03-12T08:15:31;99928.78;;;7.25;90.94
41830;BME280;38614;43.472;23.936;2023-03-12T08:18:20;99968.56;;;8.01;94.25
41830;BME280;38614;43.472;23.936;2023-03-12T08:21:08;99951.13;;;7.85;92.71
41830;BME280;38614;43.472;23.936;2023-03-12T08:23:56;99967.56;;;8.34;90.96
41830;BME280;38614;43.472;23.936;2023-03-12T08:26:44;99968.69;;;8.45;91.43
41830;BME280;38614;43.472;23.936;2023-03-12T08:29:31;99964.28;;;8.56;85.44
41830;BME280;38614;43.472;23.936;2023-03-12T08:32:19;99971.88;;;8.59;83.83
41830;BME280;38614;43.472;23.936;2023-03-12T08:35:07;99985.88;;;8.82;84.14
41830;BME280;38614;43.472;23.936;2023-03-12T08:37:56;99979.31;;;9.30;84.46
41830;BME280;38614;43.472;23.936;2023-03-12T08:40:44;99964.44;;;9.03;81.89
41830;BME280;38614;43.472;23.936;2023-03-12T08:43:35;99974.44;;;9.55;82.68
41830;BME280;38614;43.472;23.936;2023-03-12T08:46:25;99979.69;;;8.85;80.39
41830;BME280;38614;43.472;23.936;2023-03-12T08:49:13;100001.66;;;8.17;81.79
41830;BME280;38614;43.472;23.936;2023-03-12T08:52:00;99997.41;;;8.72;82.15
41830;BME280;38614;43.472;23.936;2023-03-12T08:54:48;100003.69;;;8.44;79.82
41830;BME280;38614;43.472;23.936;2023-03-12T08:57:37;100004.03;;;8.83;80.30
41830;BME280;38614;43.472;23.936;2023-03-12T09:00:25;100004.22;;;8.90;80.88
41830;BME280;38614;43.472;23.936;2023-03-12T09:03:12;99993.00;;;8.83;81.50
41830;BME280;38614;43.472;23.936;2023-03-12T09:06:06;100010.19;;;8.92;80.97
41830;BME280;38614;43.472;23.936;2023-03-12T09:08:57;100006.22;;;8.49;79.08
41830;BME280;38614;43.472;23.936;2023-03-12T09:11:45;100012.03;;;8.60;79.23
41830;BME280;38614;43.472;23.936;2023-03-12T09:14:33;100001.25;;;8.83;79.37
41830;BME280;38614;43.472;23.936;2023-03-12T09:17:41;99997.16;;;9.05;79.23
41830;BME280;38614;43.472;23.936;2023-03-12T09:20:28;99998.22;;;9.00;80.20
41830;BME280;38614;43.472;23.936;2023-03-12T09:23:17;99980.66;;;8.24;81.36
41830;BME280;38614;43.472;23.936;2023-03-12T09:26:04;100006.81;;;8.31;80.14
41830;BME280;38614;43.472;23.936;2023-03-12T09:28:52;100001.06;;;8.48;80.62
41830;BME280;38614;43.472;23.936;2023-03-12T09:31:42;99999.78;;;8.57;80.85
41830;BME280;38614;43.472;23.936;2023-03-12T09:34:30;100001.06;;;8.48;79.22
41830;BME280;38614;43.472;23.936;2023-03-12T09:37:17;99999.34;;;8.19;80.80
41830;BME280;38614;43.472;23.936;2023-03-12T09:40:15;100006.47;;;8.20;81.63
41830;BME280;38614;43.472;23.936;2023-03-12T09:43:31;100009.19;;;8.32;80.72
41830;BME280;38614;43.472;23.936;2023-03-12T09:46:25;100013.22;;;8.35;80.99
41830;BME280;38614;43.472;23.936;2023-03-12T09:49:20;100019.34;;;8.68;79.69
41830;BME280;38614;43.472;23.936;2023-03-12T09:52:27;100015.00;;;8.55;77.13
41830;BME280;38614;43.472;23.936;2023-03-12T09:55:18;100020.41;;;8.92;76.88
41830;BME280;38614;43.472;23.936;2023-03-12T09:58:30;100018.22;;;8.97;77.27
41830;BME280;38614;43.472;23.936;2023-03-12T10:07:47;100036.19;;;9.66;75.80
41830;BME280;38614;43.472;23.936;2023-03-12T10:10:49;100025.84;;;9.48;75.90
41830;BME280;38614;43.472;23.936;2023-03-12T10:20:22;100048.09;;;8.83;78.02
41830;BME280;38614;43.472;23.936;2023-03-12T10:26:28;100051.66;;;9.55;77.88
41830;BME280;38614;43.472;23.936;2023-03-12T10:29:25;100047.06;;;10.07;75.88
41830;BME280;38614;43.472;23.936;2023-03-12T10:32:16;100042.34;;;9.91;75.39
41830;BME280;38614;43.472;23.936;2023-03-12T10:35:21;100038.75;;;10.38;76.61
41830;BME280;38614;43.472;23.936;2023-03-12T10:38:16;100015.22;;;10.83;71.60
41830;BME280;38614;43.472;23.936;2023-03-12T10:41:20;100015.38;;;10.90;72.01
41830;BME280;38614;43.472;23.936;2023-03-12T10:44:08;100024.38;;;10.68;75.82
41830;BME280;38614;43.472;23.936;2023-03-12T10:50:59;100023.81;;;10.78;73.75
41830;BME280;38614;43.472;23.936;2023-03-12T10:53:47;100001.91;;;10.69;75.54
41830;BME280;38614;43.472;23.936;2023-03-12T10:56:48;100024.69;;;10.63;71.87
41830;BME280;38614;43.472;23.936;2023-03-12T10:59:39;100013.41;;;10.52;73.07
41830;BME280;38614;43.472;23.936;2023-03-12T11:08:29;100012.09;;;11.04;71.29
41830;BME280;38614;43.472;23.936;2023-03-12T11:11:33;100018.00;;;10.64;70.01
41830;BME280;38614;43.472;23.936;2023-03-12T11:14:28;100002.41;;;10.94;68.82
41830;BME280;38614;43.472;23.936;2023-03-12T11:17:24;99999.91;;;11.51;73.22
41830;BME280;38614;43.472;23.936;2023-03-12T11:20:28;99995.59;;;11.53;69.59
41830;BME280;38614;43.472;23.936;2023-03-12T11:23:21;100006.63;;;11.73;72.43
41830;BME280;38614;43.472;23.936;2023-03-12T11:29:08;99991.75;;;11.81;70.39
41830;BME280;38614;43.472;23.936;2023-03-12T11:32:05;99990.97;;;11.15;68.64
41830;BME280;38614;43.472;23.936;2023-03-12T11:34:57;99973.72;;;11.45;68.19
41830;BME280;38614;43.472;23.936;2023-03-12T11:38:16;99984.78;;;11.22;64.58
41830;BME280;38614;43.472;23.936;2023-03-12T11:44:23;99978.72;;;11.16;66.07
41830;BME280;38614;43.472;23.936;2023-03-12T11:47:39;99977.06;;;11.11;68.33
41830;BME280;38614;43.472;23.936;2023-03-12T11:56:46;99986.44;;;10.65;66.63
41830;BME280;38614;43.472;23.936;2023-03-12T12:05:37;100015.09;;;9.42;67.06
41830;BME280;38614;43.472;23.936;2023-03-12T12:21:01;99989.59;;;10.47;68.57
41830;BME280;38614;43.472;23.936;2023-03-12T12:35:58;99960.66;;;10.61;65.83
41830;BME280;38614;43.472;23.936;2023-03-12T12:42:03;99977.72;;;10.63;65.64
41830;BME280;38614;43.472;23.936;2023-03-12T12:44:54;99991.19;;;11.06;64.79
41830;BME280;38614;43.472;23.936;2023-03-12T12:47:48;99985.59;;;11.03;65.53
41830;BME280;38614;43.472;23.936;2023-03-12T12:50:38;99978.69;;;11.12;65.22
41830;BME280;38614;43.472;23.936;2023-03-12T12:56:27;100016.69;;;10.77;62.03
41830;BME280;38614;43.472;23.936;2023-03-12T13:02:18;100003.28;;;10.79;62.69
41830;BME280;38614;43.472;23.936;2023-03-12T13:05:27;100012.47;;;10.83;63.35
41830;BME280;38614;43.472;23.936;2023-03-12T13:11:43;100017.84;;;10.56;62.10
41830;BME280;38614;43.472;23.936;2023-03-12T13:14:39;100025.34;;;10.05;62.80
41830;BME280;38614;43.472;23.936;2023-03-12T13:24:08;100034.13;;;9.95;66.48
41830;BME280;38614;43.472;23.936;2023-03-12T13:27:23;100039.22;;;9.46;68.15
41830;BME280;38614;43.472;23.936;2023-03-12T13:30:48;100025.06;;;9.31;66.69
41830;BME280;38614;43.472;23.936;2023-03-12T13:33:45;100023.56;;;9.50;65.84
41830;BME280;38614;43.472;23.936;2023-03-12T13:36:37;100022.47;;;9.23;66.63
41830;BME280;38614;43.472;23.936;2023-03-12T13:39:35;100038.97;;;9.51;67.56
41830;BME280;38614;43.472;23.936;2023-03-12T13:45:28;100036.91;;;9.63;66.64
41830;BME280;38614;43.472;23.936;2023-03-12T13:48:19;100036.88;;;9.48;65.58
41830;BME280;38614;43.472;23.936;2023-03-12T13:51:17;100032.81;;;9.73;66.15
41830;BME280;38614;43.472;23.936;2023-03-12T13:54:15;100055.41;;;9.94;66.89
41830;BME280;38614;43.472;23.936;2023-03-12T13:57:57;100044.84;;;9.96;65.12
41830;BME280;38614;43.472;23.936;2023-03-12T14:00:25;100060.91;;;9.47;65.20
41830;BME280;38614;43.472;23.936;2023-03-12T14:03:20;100061.09;;;9.54;64.29
41830;BME280;38614;43.472;23.936;2023-03-12T14:06:25;100056.22;;;9.20;67.45
41830;BME280;38614;43.472;23.936;2023-03-12T14:09:42;100065.94;;;9.13;67.76
41830;BME280;38614;43.472;23.936;2023-03-12T14:12:40;100063.53;;;9.12;69.05
41830;BME280;38614;43.472;23.936;2023-03-12T14:19:03;100068.47;;;9.34;66.92
41830;BME280;38614;43.472;23.936;2023-03-12T14:21:52;100063.84;;;9.38;67.83
41830;BME280;38614;43.472;23.936;2023-03-12T14:25:15;100067.44;;;9.55;67.08
41830;BME280;38614;43.472;23.936;2023-03-12T14:28:14;100061.88;;;9.39;68.28
41830;BME280;38614;43.472;23.936;2023-03-12T14:34:17;100049.25;;;9.10;66.28
41830;BME280;38614;43.472;23.936;2023-03-12T14:40:07;100072.13;;;9.10;66.46
41830;BME280;38614;43.472;23.936;2023-03-12T14:46:19;100074.06;;;9.10;66.53
41830;BME280;38614;43.472;23.936;2023-03-12T14:49:08;100065.56;;;9.15;69.29
41830;BME280;38614;43.472;23.936;2023-03-12T14:52:06;100073.41;;;9.01;66.29
41830;BME280;38614;43.472;23.936;2023-03-12T14:55:02;100081.25;;;8.99;68.40
41830;BME280;38614;43.472;23.936;2023-03-12T14:58:06;100083.00;;;8.91;67.16
41830;BME280;38614;43.472;23.936;2023-03-12T15:01:04;100067.69;;;8.53;64.53
41830;BME280;38614;43.472;23.936;2023-03-12T15:03:58;100101.16;;;8.80;66.58
41830;BME280;38614;43.472;23.936;2023-03-12T15:06:53;100097.66;;;8.55;65.04
41830;BME280;38614;43.472;23.936;2023-03-12T15:09:43;100071.59;;;8.28;64.47
41830;BME280;38614;43.472;23.936;2023-03-12T15:12:34;100107.06;;;8.29;64.73
41830;BME280;38614;43.472;23.936;2023-03-12T15:15:40;100101.44;;;8.26;68.49
41830;BME280;38614;43.472;23.936;2023-03-12T15:18:35;100114.16;;;8.31;67.05
41830;BME280;38614;43.472;23.936;2023-03-12T15:21:29;100118.88;;;8.30;68.60
41830;BME280;38614;43.472;23.936;2023-03-12T15:24:18;100123.69;;;8.33;68.75
41830;BME280;38614;43.472;23.936;2023-03-12T15:30:26;100129.19;;;8.33;69.28
41830;BME280;38614;43.472;23.936;2023-03-12T15:36:26;100129.88;;;8.18;70.06
41830;BME280;38614;43.472;23.936;2023-03-12T15:39:26;100144.66;;;8.01;69.21
41830;BME280;38614;43.472;23.936;2023-03-12T15:42:18;100143.97;;;7.92;70.00
41830;BME280;38614;43.472;23.936;2023-03-12T15:45:20;100151.28;;;7.88;71.23
41830;BME280;38614;43.472;23.936;2023-03-12T15:48:29;100155.72;;;7.80;69.99
41830;BME280;38614;43.472;23.936;2023-03-12T15:51:35;100161.31;;;7.71;70.66
41830;BME280;38614;43.472;23.936;2023-03-12T15:54:25;100135.13;;;7.53;70.94
41830;BME280;38614;43.472;23.936;2023-03-12T15:57:22;100169.06;;;7.57;70.78
41830;BME280;38614;43.472;23.936;2023-03-12T16:03:01;100165.28;;;7.29;72.10
41830;BME280;38614;43.472;23.936;2023-03-12T16:05:54;100168.50;;;7.31;72.65
41830;BME280;38614;43.472;23.936;2023-03-12T16:08:46;100184.19;;;7.30;72.91
41830;BME280;38614;43.472;23.936;2023-03-12T16:11:36;100164.75;;;7.14;73.77
41830;BME280;38614;43.472;23.936;2023-03-12T16:14:33;100183.53;;;7.12;73.51
41830;BME280;38614;43.472;23.936;2023-03-12T16:17:23;100165.75;;;6.89;75.73
41830;BME280;38614;43.472;23.936;2023-03-12T16:20:12;100194.22;;;6.84;76.56
41830;BME280;38614;43.472;23.936;2023-03-12T16:23:01;100178.94;;;6.75;78.29
41830;BME280;38614;43.472;23.936;2023-03-12T16:25:52;100187.56;;;6.65;79.68
41830;BME280;38614;43.472;23.936;2023-03-12T16:28:42;100211.22;;;6.48;80.47
41830;BME280;38614;43.472;23.936;2023-03-12T16:31:30;100144.59;;;5.92;80.68
41830;BME280;38614;43.472;23.936;2023-03-12T16:34:18;100189.94;;;5.98;82.47
41830;BME280;38614;43.472;23.936;2023-03-12T16:37:09;100216.38;;;5.94;84.43
41830;BME280;38614;43.472;23.936;2023-03-12T16:39:57;100232.19;;;5.89;85.13
41830;BME280;38614;43.472;23.936;2023-03-12T16:42:50;100237.38;;;5.73;85.83
41830;BME280;38614;43.472;23.936;2023-03-12T16:45:44;100239.78;;;5.49;89.29
41830;BME280;38614;43.472;23.936;2023-03-12T16:48:33;100221.56;;;5.18;92.85
41830;BME280;38614;43.472;23.936;2023-03-12T16:51:22;100253.00;;;5.29;92.96
41830;BME280;38614;43.472;23.936;2023-03-12T16:54:10;100227.22;;;5.13;91.51